createdAt,value
2023-03-11T00:00:25.327Z,0.44
2023-03-11T00:03:01.172Z,0.42
2023-03-11T00:05:40.300Z,0.40
2023-03-11T00:08:17.501Z,0.51
2023-03-11T00:10:58.642Z,0.35
2023-03-11T00:13:31.268Z,0.23
2023-03-11T00:16:04.253Z,0.05
2023-03-11T00:18:36.786Z,-0.21
2023-03-11T00:21:17.089Z,-0.11
2023-03-11T00:23:49.756Z,-0.19
2023-03-11T00:26:22.300Z,-0.22
2023-03-11T00:28:55.592Z,-0.42
2023-03-11T00:31:28.702Z,-0.51
2023-03-11T00:34:01.251Z,-0.74
2023-03-11T00:36:34.108Z,-0.70
2023-03-11T00:39:07.459Z,-0.83
2023-03-11T00:41:40.058Z,-0.69
2023-03-11T00:44:12.604Z,-0.86
2023-03-11T00:46:45.127Z,-0.71
2023-03-11T00:49:18.575Z,-0.72
2023-03-11T00:51:51.153Z,-0.80
2023-03-11T00:54:23.763Z,-0.83
2023-03-11T00:56:56.339Z,-0.95
2023-03-11T00:59:28.884Z,-0.81
2023-03-11T01:02:01.457Z,-0.76
2023-03-11T01:04:34.002Z,-0.73
2023-03-11T01:07:06.633Z,-0.80
2023-03-11T01:09:39.198Z,-0.84
2023-03-11T01:12:11.762Z,-0.56
2023-03-11T01:14:44.458Z,-0.39
2023-03-11T01:17:17.112Z,-0.36
2023-03-11T01:19:50.298Z,-0.69
2023-03-11T01:22:22.945Z,-0.47
2023-03-11T01:24:55.476Z,-0.59
2023-03-11T01:27:28.634Z,-0.44
2023-03-11T01:30:01.278Z,-0.42
2023-03-11T01:32:33.908Z,-0.29
2023-03-11T01:35:07.158Z,-0.54
2023-03-11T01:37:39.880Z,-0.41
2023-03-11T01:40:29.775Z,-0.43
2023-03-11T01:43:05.494Z,-0.48
2023-03-11T01:45:50.234Z,-0.43
2023-03-11T01:48:22.807Z,-0.59
2023-03-11T01:50:56.706Z,-0.69
2023-03-11T01:53:29.515Z,-0.77
2023-03-11T01:56:05.758Z,-0.76
2023-03-11T01:58:44.874Z,-0.66
2023-03-11T02:01:18.712Z,-0.74
2023-03-11T02:03:51.587Z,-0.90
2023-03-11T02:06:25.790Z,-0.84
2023-03-11T02:09:00.923Z,-0.87
2023-03-11T02:11:33.430Z,-0.90
2023-03-11T02:14:09.052Z,-0.91
2023-03-11T02:16:41.711Z,-0.88
2023-03-11T02:19:45.671Z,-0.71
2023-03-11T02:22:18.842Z,-0.76
2023-03-11T02:25:03.752Z,-0.84
2023-03-11T02:27:41.692Z,-0.76
2023-03-11T02:30:17.155Z,-0.68
2023-03-11T02:32:50.602Z,-0.75
2023-03-11T02:35:25.433Z,-0.79
2023-03-11T02:37:57.938Z,-0.97
2023-03-11T02:40:42.322Z,-0.83
2023-03-11T02:43:22.508Z,-0.93
2023-03-11T02:45:57.598Z,-0.93
2023-03-11T02:48:31.005Z,-0.91
2023-03-11T02:51:03.831Z,-0.97
2023-03-11T02:53:46.014Z,-1.01
2023-03-11T02:56:18.789Z,-0.93
2023-03-11T02:58:51.386Z,-0.93
2023-03-11T03:01:24.047Z,-1.16
2023-03-11T03:03:57.117Z,-1.06
2023-03-11T03:06:29.771Z,-1.03
2023-03-11T03:09:02.783Z,-1.07
2023-03-11T03:11:35.359Z,-1.06
2023-03-11T03:14:07.913Z,-1.01
2023-03-11T03:16:40.603Z,-1.13
2023-03-11T03:19:13.165Z,-1.13
2023-03-11T03:21:46.068Z,-1.32
2023-03-11T03:24:18.646Z,-1.21
2023-03-11T03:26:52.017Z,-1.24
2023-03-11T03:29:24.512Z,-1.27
2023-03-11T03:31:57.145Z,-1.45
2023-03-11T03:34:29.734Z,-1.38
2023-03-11T03:37:02.291Z,-1.37
2023-03-11T03:39:34.828Z,-1.41
2023-03-11T03:42:08.078Z,-1.33
2023-03-11T03:44:40.630Z,-1.42
2023-03-11T03:47:13.294Z,-1.39
2023-03-11T03:49:45.998Z,-1.39
2023-03-11T03:52:18.821Z,-1.42
2023-03-11T03:54:51.508Z,-1.50
2023-03-11T03:57:24.023Z,-1.39
2023-03-11T03:59:56.581Z,-1.45
2023-03-11T04:02:29.194Z,-1.16
2023-03-11T04:05:01.993Z,-1.18
2023-03-11T04:07:35.945Z,-1.19
2023-03-11T04:10:08.929Z,-1.21
2023-03-11T04:12:41.407Z,-1.21
2023-03-11T04:15:14.038Z,-1.35
2023-03-11T04:17:46.594Z,-1.09
2023-03-11T04:20:19.328Z,-1.28
2023-03-11T04:22:51.971Z,-1.26
2023-03-11T04:25:24.519Z,-1.24
2023-03-11T04:27:57.053Z,-1.31
2023-03-11T04:30:29.666Z,-1.17
2023-03-11T04:33:02.292Z,-1.30
2023-03-11T04:35:34.836Z,-1.37
2023-03-11T04:38:07.393Z,-1.42
2023-03-11T04:40:39.961Z,-1.37
2023-03-11T04:43:12.523Z,-1.42
2023-03-11T04:45:45.137Z,-1.50
2023-03-11T04:48:17.763Z,-1.50
2023-03-11T04:50:50.601Z,-1.53
2023-03-11T04:53:24.228Z,-1.60
2023-03-11T04:55:56.942Z,-1.64
2023-03-11T04:58:29.466Z,-1.63
2023-03-11T05:01:02.057Z,-1.70
2023-03-11T05:03:34.612Z,-1.77
2023-03-11T05:06:07.541Z,-1.77
2023-03-11T05:08:40.528Z,-1.83
2023-03-11T05:11:13.064Z,-1.86
2023-03-11T05:13:45.598Z,-1.94
2023-03-11T05:16:18.192Z,-1.93
2023-03-11T05:18:50.672Z,-1.99
2023-03-11T05:21:23.187Z,-2.00
2023-03-11T05:23:55.716Z,-2.07
2023-03-11T05:26:28.264Z,-2.10
2023-03-11T05:29:00.803Z,-2.15
2023-03-11T05:31:33.434Z,-2.19
2023-03-11T05:34:06.287Z,-2.21
2023-03-11T05:36:38.829Z,-2.21
2023-03-11T05:39:11.838Z,-2.31
2023-03-11T05:41:44.735Z,-2.27
2023-03-11T05:44:17.225Z,-2.31
2023-03-11T05:46:49.836Z,-2.29
2023-03-11T05:49:22.837Z,-2.33
2023-03-11T05:51:58.376Z,-2.37
2023-03-11T05:54:31.278Z,-2.35
2023-03-11T05:57:04.017Z,-2.35
2023-03-11T05:59:37.743Z,-2.40
2023-03-11T06:02:10.452Z,-2.37
2023-03-11T06:04:43.219Z,-2.40
2023-03-11T06:07:16.257Z,-2.43
2023-03-11T06:09:50.588Z,-2.48
2023-03-11T06:12:23.137Z,-2.47
2023-03-11T06:14:55.647Z,-2.47
2023-03-11T06:17:30.391Z,-2.52
2023-03-11T06:20:04.773Z,-2.53
2023-03-11T06:22:40.093Z,-2.50
2023-03-11T06:25:12.838Z,-2.56
2023-03-11T06:27:52.382Z,-2.50
2023-03-11T06:30:25.510Z,-2.46
2023-03-11T06:32:58.106Z,-2.45
2023-03-11T06:35:30.794Z,-2.49
2023-03-11T06:38:03.398Z,-2.41
2023-03-11T06:40:37.963Z,-2.37
2023-03-11T06:43:11.787Z,-2.33
2023-03-11T06:45:44.759Z,-2.24
2023-03-11T06:48:17.444Z,-2.35
2023-03-11T06:50:59.152Z,-2.24
2023-03-11T06:53:31.975Z,-2.08
2023-03-11T06:56:11.748Z,-2.08
2023-03-11T06:58:44.920Z,-2.07
2023-03-11T07:01:22.122Z,-2.03
2023-03-11T07:03:54.748Z,-1.92
2023-03-11T07:06:28.912Z,-1.90
2023-03-11T07:09:01.502Z,-1.80
2023-03-11T07:11:34.139Z,-1.75
2023-03-11T07:14:06.716Z,-1.56
2023-03-11T07:16:40.269Z,-1.58
2023-03-11T07:19:13.321Z,-1.51
2023-03-11T07:21:45.918Z,-1.39
2023-03-11T07:24:18.586Z,-1.33
2023-03-11T07:26:51.241Z,-1.24
2023-03-11T07:29:23.711Z,-1.12
2023-03-11T07:31:56.258Z,-1.16
2023-03-11T07:34:28.769Z,-1.07
2023-03-11T07:37:01.319Z,-1.02
2023-03-11T07:39:33.886Z,-0.94
2023-03-11T07:42:06.735Z,-0.89
2023-03-11T07:44:39.360Z,-0.70
2023-03-11T07:47:11.893Z,-0.61
2023-03-11T07:49:44.426Z,-0.47
2023-03-11T07:52:16.928Z,-0.31
2023-03-11T07:54:49.406Z,-0.38
2023-03-11T07:57:21.979Z,-0.32
2023-03-11T07:59:54.479Z,-0.29
2023-03-11T08:02:27.444Z,-0.20
2023-03-11T08:05:00.096Z,0.02
2023-03-11T08:07:33.294Z,-0.03
2023-03-11T08:10:06.749Z,0.26
2023-03-11T08:12:40.373Z,0.38
2023-03-11T08:15:12.976Z,0.56
2023-03-11T08:17:45.521Z,0.61
2023-03-11T08:20:18.104Z,0.83
2023-03-11T08:22:57.961Z,0.82
2023-03-11T08:25:31.527Z,1.19
2023-03-11T08:28:04.254Z,1.28
2023-03-11T08:30:37.737Z,1.47
2023-03-11T08:33:10.258Z,1.69
2023-03-11T08:35:42.885Z,1.78
2023-03-11T08:38:15.677Z,1.91
2023-03-11T08:40:48.338Z,2.01
2023-03-11T08:43:20.851Z,1.98
2023-03-11T08:45:53.321Z,1.89
2023-03-11T08:48:26.231Z,1.99
2023-03-11T08:50:59.033Z,2.14
2023-03-11T08:53:31.582Z,2.37
2023-03-11T08:56:04.749Z,2.38
2023-03-11T08:58:37.492Z,2.64
2023-03-11T09:01:10.952Z,2.76
2023-03-11T09:03:43.506Z,2.27
2023-03-11T09:06:17.677Z,2.30
2023-03-11T09:08:50.337Z,2.55
2023-03-11T09:11:23.195Z,2.98
2023-03-11T09:13:55.695Z,3.15
2023-03-11T09:16:28.220Z,3.10
2023-03-11T09:19:03.623Z,3.12
2023-03-11T09:21:37.353Z,2.99
2023-03-11T09:24:09.892Z,3.22
2023-03-11T09:26:42.372Z,3.30
2023-03-11T09:29:14.923Z,3.31
2023-03-11T09:31:48.038Z,3.50
2023-03-11T09:34:20.515Z,3.10
2023-03-11T09:36:53.108Z,3.19
2023-03-11T09:39:25.633Z,3.42
2023-03-11T09:42:12.395Z,3.66
2023-03-11T09:44:59.852Z,4.09
2023-03-11T09:47:42.446Z,4.34
2023-03-11T09:50:29.192Z,4.08
2023-03-11T09:53:46.400Z,3.96
2023-03-11T09:56:22.514Z,4.62
2023-03-11T09:59:02.348Z,4.93
2023-03-11T10:01:46.959Z,4.80
2023-03-11T10:04:39.776Z,4.97
2023-03-11T10:07:27.899Z,4.18
2023-03-11T10:10:00.699Z,4.60
2023-03-11T10:13:14.361Z,4.51
2023-03-11T10:15:59.422Z,4.06
2023-03-11T10:18:43.955Z,4.88
2023-03-11T10:22:05.204Z,5.08
2023-03-11T10:24:52.494Z,5.30
2023-03-11T10:27:49.791Z,5.34
2023-03-11T10:30:31.611Z,5.30
2023-03-11T10:33:37.078Z,5.03
2023-03-11T10:36:19.116Z,4.81
2023-03-11T10:38:55.415Z,5.44
2023-03-11T10:41:44.760Z,5.43
2023-03-11T10:44:38.247Z,5.32
2023-03-11T10:47:25.370Z,5.33
2023-03-11T10:49:58.091Z,4.79
2023-03-11T10:52:30.902Z,4.87
2023-03-11T10:55:04.719Z,4.89
2023-03-11T10:57:39.011Z,5.48
2023-03-11T11:00:29.694Z,5.72
2023-03-11T11:03:04.455Z,5.52
2023-03-11T11:05:38.204Z,5.68
2023-03-11T11:08:19.515Z,5.71
2023-03-11T11:10:56.257Z,5.67
2023-03-11T11:13:34.525Z,5.76
2023-03-11T11:16:16.669Z,6.18
2023-03-11T11:19:16.479Z,5.99
2023-03-11T11:21:52.492Z,6.13
2023-03-11T11:24:29.899Z,5.98
2023-03-11T11:27:12.029Z,6.44
2023-03-11T11:29:45.846Z,6.53
2023-03-11T11:32:25.958Z,6.49
2023-03-11T11:35:05.513Z,6.37
2023-03-11T11:37:51.794Z,6.65
2023-03-11T11:40:30.716Z,6.49
2023-03-11T11:43:17.868Z,6.51
2023-03-11T11:46:02.032Z,6.62
2023-03-11T11:49:19.939Z,6.23
2023-03-11T11:52:20.914Z,6.35
2023-03-11T11:55:08.160Z,6.04
2023-03-11T11:57:40.947Z,5.79
2023-03-11T12:00:26.015Z,6.04
2023-03-11T12:03:50.458Z,6.28
2023-03-11T12:07:19.137Z,6.36
2023-03-11T12:10:22.904Z,6.46
2023-03-11T12:13:55.638Z,6.10
2023-03-11T12:17:03.306Z,5.79
2023-03-11T12:19:54.754Z,5.75
2023-03-11T12:23:20.773Z,5.42
2023-03-11T12:26:18.271Z,5.41
2023-03-11T12:29:31.076Z,4.91
2023-03-11T12:32:04.452Z,5.32
2023-03-11T12:34:37.209Z,5.54
2023-03-11T12:37:17.045Z,5.44
2023-03-11T12:39:49.648Z,5.29
2023-03-11T12:42:27.457Z,5.46
2023-03-11T12:45:49.350Z,5.20
2023-03-11T12:48:46.104Z,5.48
2023-03-11T12:51:27.833Z,5.47
2023-03-11T12:54:42.796Z,5.66
2023-03-11T12:57:18.614Z,5.79
2023-03-11T13:00:18.745Z,5.70
2023-03-11T13:03:19.493Z,5.77
2023-03-11T13:06:27.863Z,6.09
2023-03-11T13:09:00.947Z,5.98
2023-03-11T13:11:33.440Z,6.00
2023-03-11T13:14:30.618Z,6.26
2023-03-11T13:17:35.850Z,6.11
2023-03-11T13:20:43.065Z,6.06
2023-03-11T13:23:34.261Z,5.58
2023-03-11T13:26:26.795Z,5.76
2023-03-11T13:29:38.904Z,5.74
2023-03-11T13:32:48.916Z,5.21
2023-03-11T13:35:48.881Z,5.79
2023-03-11T13:39:21.978Z,5.76
2023-03-11T13:41:55.955Z,5.86
2023-03-11T13:44:38.990Z,6.10
2023-03-11T13:47:17.604Z,5.95
2023-03-11T13:50:01.547Z,6.20
2023-03-11T13:52:42.699Z,6.08
2023-03-11T13:55:23.740Z,5.91
2023-03-11T13:57:57.911Z,6.10
2023-03-11T14:00:32.236Z,6.40
2023-03-11T14:03:13.300Z,6.70
2023-03-11T14:05:49.363Z,6.90
2023-03-11T14:08:26.919Z,6.70
2023-03-11T14:11:03.889Z,6.79
2023-03-11T14:13:45.008Z,7.04
2023-03-11T14:16:24.615Z,6.97
2023-03-11T14:19:18.522Z,6.59
2023-03-11T14:21:51.730Z,6.24
2023-03-11T14:24:30.361Z,6.60
2023-03-11T14:27:09.385Z,6.67
2023-03-11T14:29:43.791Z,6.77
2023-03-11T14:32:28.742Z,6.73
2023-03-11T14:35:02.029Z,6.87
2023-03-11T14:37:38.320Z,7.15
2023-03-11T14:40:38.022Z,7.03
2023-03-11T14:43:12.372Z,7.15
2023-03-11T14:45:45.418Z,7.26
2023-03-11T14:48:38.643Z,7.01
2023-03-11T14:51:23.088Z,7.02
2023-03-11T14:54:24.130Z,7.42
2023-03-11T14:57:14.866Z,7.48
2023-03-11T14:59:51.290Z,7.60
2023-03-11T15:02:50.070Z,7.72
2023-03-11T15:05:54.642Z,7.64
2023-03-11T15:08:33.602Z,7.67
2023-03-11T15:11:14.570Z,7.60
2023-03-11T15:13:51.219Z,7.73
2023-03-11T15:16:37.611Z,7.23
2023-03-11T15:19:28.586Z,7.30
2023-03-11T15:22:28.772Z,6.97
2023-03-11T15:25:05.365Z,6.44
2023-03-11T15:27:39.282Z,6.02
2023-03-11T15:30:24.863Z,6.69
2023-03-11T15:32:58.897Z,6.28
2023-03-11T15:35:45.081Z,6.02
2023-03-11T15:38:28.310Z,6.05
2023-03-11T15:41:03.710Z,6.05
2023-03-11T15:43:48.470Z,6.21
2023-03-11T15:46:21.230Z,6.22
2023-03-11T15:48:53.927Z,6.47
2023-03-11T15:51:26.437Z,6.71
2023-03-11T15:53:58.949Z,6.90
2023-03-11T15:56:33.195Z,6.98
2023-03-11T15:59:06.520Z,7.30
2023-03-11T16:01:39.158Z,7.07
2023-03-11T16:04:19.415Z,6.92
2023-03-11T16:07:07.003Z,6.94
2023-03-11T16:09:40.632Z,6.76
2023-03-11T16:12:22.910Z,7.00
2023-03-11T16:14:55.466Z,7.31
2023-03-11T16:17:36.705Z,7.49
2023-03-11T16:20:22.906Z,7.35
2023-03-11T16:22:58.713Z,7.47
2023-03-11T16:25:36.233Z,7.55
2023-03-11T16:28:14.372Z,7.79
2023-03-11T16:30:50.711Z,8.06
2023-03-11T16:33:23.519Z,8.22
2023-03-11T16:35:56.476Z,8.89
2023-03-11T16:38:30.790Z,8.64
2023-03-11T16:41:03.733Z,8.26
2023-03-11T16:43:36.342Z,7.92
2023-03-11T16:46:09.412Z,7.54
2023-03-11T16:48:41.988Z,7.07
2023-03-11T16:51:14.564Z,6.76
2023-03-11T16:53:47.138Z,6.44
2023-03-11T16:56:19.725Z,6.38
2023-03-11T16:58:52.321Z,6.32
2023-03-11T17:01:25.033Z,6.13
2023-03-11T17:03:57.621Z,5.93
2023-03-11T17:06:30.130Z,5.83
2023-03-11T17:09:02.755Z,5.62
2023-03-11T17:11:35.332Z,5.61
2023-03-11T17:14:16.280Z,5.47
2023-03-11T17:16:49.421Z,5.34
2023-03-11T17:19:23.985Z,5.21
2023-03-11T17:21:57.580Z,5.13
2023-03-11T17:24:30.783Z,5.01
2023-03-11T17:27:04.384Z,4.90
2023-03-11T17:29:37.052Z,4.74
2023-03-11T17:32:16.776Z,4.60
2023-03-11T17:34:49.903Z,4.45
2023-03-11T17:37:23.037Z,4.31
2023-03-11T17:39:55.713Z,4.13
2023-03-11T17:42:28.319Z,4.01
2023-03-11T17:45:00.826Z,3.87
2023-03-11T17:47:33.747Z,3.81
2023-03-11T17:50:07.098Z,3.60
2023-03-11T17:52:39.716Z,3.55
2023-03-11T17:55:12.281Z,3.39
2023-03-11T17:57:45.966Z,3.29
2023-03-11T18:00:19.222Z,3.19
2023-03-11T18:02:51.911Z,3.07
2023-03-11T18:05:24.450Z,2.97
2023-03-11T18:07:57.080Z,2.88
2023-03-11T18:10:29.711Z,2.82
2023-03-11T18:13:02.313Z,2.75
2023-03-11T18:15:34.921Z,2.68
2023-03-11T18:18:07.439Z,2.65
2023-03-11T18:20:40.130Z,2.63
2023-03-11T18:23:12.770Z,2.58
2023-03-11T18:25:51.777Z,2.55
2023-03-11T18:28:24.378Z,2.54
2023-03-11T18:30:57.620Z,2.51
2023-03-11T18:33:30.244Z,2.46
2023-03-11T18:36:35.890Z,2.40
2023-03-11T18:39:14.348Z,2.36
2023-03-11T18:41:46.949Z,2.28
2023-03-11T18:44:20.929Z,2.22
2023-03-11T18:46:53.489Z,2.22
2023-03-11T18:49:26.088Z,2.15
2023-03-11T18:51:59.149Z,2.04
2023-03-11T18:54:31.907Z,2.00
2023-03-11T18:57:04.474Z,1.93
2023-03-11T18:59:37.006Z,1.86
2023-03-11T19:02:11.121Z,1.78
2023-03-11T19:04:43.806Z,1.71
2023-03-11T19:07:16.314Z,1.70
2023-03-11T19:09:49.761Z,1.69
2023-03-11T19:12:22.319Z,1.68
2023-03-11T19:14:54.881Z,1.61
2023-03-11T19:17:27.414Z,1.62
2023-03-11T19:20:00.056Z,1.62
2023-03-11T19:22:32.682Z,1.61
2023-03-11T19:25:06.117Z,1.60
2023-03-11T19:27:40.184Z,1.54
2023-03-11T19:30:13.979Z,1.48
2023-03-11T19:32:47.599Z,1.46
2023-03-11T19:35:24.137Z,1.46
2023-03-11T19:37:58.393Z,1.37
2023-03-11T19:40:31.629Z,1.34
2023-03-11T19:43:05.847Z,1.33
2023-03-11T19:45:39.830Z,1.24
2023-03-11T19:48:13.323Z,1.21
2023-03-11T19:50:49.186Z,1.18
2023-03-11T19:53:23.258Z,1.19
2023-03-11T19:55:57.912Z,1.15
2023-03-11T19:58:31.706Z,1.16
2023-03-11T20:01:04.815Z,1.19
2023-03-11T20:03:37.515Z,1.13
2023-03-11T20:06:11.153Z,1.21
2023-03-11T20:08:44.011Z,1.24
2023-03-11T20:11:16.910Z,1.19
2023-03-11T20:13:49.507Z,1.25
2023-03-11T20:16:22.511Z,1.27
2023-03-11T20:18:55.193Z,1.33
2023-03-11T20:21:28.027Z,1.33
2023-03-11T20:24:01.019Z,1.36
2023-03-11T20:26:33.801Z,1.33
2023-03-11T20:29:06.644Z,1.46
2023-03-11T20:31:39.404Z,1.53
2023-03-11T20:34:12.907Z,1.59
2023-03-11T20:36:46.344Z,1.60
2023-03-11T20:39:19.048Z,1.62
2023-03-11T20:41:51.638Z,1.67
2023-03-11T20:44:24.336Z,1.67
2023-03-11T20:46:57.058Z,1.65
2023-03-11T20:49:29.786Z,1.69
2023-03-11T20:52:02.938Z,1.70
2023-03-11T20:54:35.625Z,1.58
2023-03-11T20:57:08.602Z,1.64
2023-03-11T20:59:41.141Z,1.64
2023-03-11T21:02:13.956Z,1.69
2023-03-11T21:04:47.852Z,1.74
2023-03-11T21:07:20.541Z,1.74
2023-03-11T21:09:54.630Z,1.84
2023-03-11T21:12:29.923Z,1.94
2023-03-11T21:15:05.320Z,1.97
2023-03-11T21:17:38.365Z,2.03
2023-03-11T21:20:11.867Z,2.11
2023-03-11T21:22:45.937Z,2.27
2023-03-11T21:25:19.148Z,2.28
2023-03-11T21:27:51.663Z,2.34
2023-03-11T21:30:24.116Z,2.40
2023-03-11T21:32:56.885Z,2.32
2023-03-11T21:35:29.635Z,2.36
2023-03-11T21:38:02.142Z,2.50
2023-03-11T21:40:34.702Z,2.57
2023-03-11T21:43:07.290Z,2.63
2023-03-11T21:45:40.000Z,2.58
2023-03-11T21:48:14.185Z,2.64
2023-03-11T21:50:48.444Z,2.66
2023-03-11T21:53:20.984Z,2.61
2023-03-11T21:55:54.268Z,2.70
2023-03-11T21:58:27.428Z,2.84
2023-03-11T22:01:00.420Z,2.74
2023-03-11T22:03:35.893Z,2.87
2023-03-11T22:06:12.315Z,2.85
2023-03-11T22:08:44.963Z,2.83
2023-03-11T22:11:20.133Z,2.84
2023-03-11T22:13:54.418Z,2.89
2023-03-11T22:16:27.365Z,2.97
2023-03-11T22:19:00.192Z,2.89
2023-03-11T22:21:32.893Z,2.82
2023-03-11T22:24:05.832Z,2.82
2023-03-11T22:26:38.441Z,2.85
2023-03-11T22:29:13.440Z,2.88
2023-03-11T22:31:46.407Z,2.91
2023-03-11T22:34:18.957Z,2.87
2023-03-11T22:36:51.708Z,2.86
2023-03-11T22:39:24.522Z,2.92
2023-03-11T22:41:57.125Z,2.90
2023-03-11T22:44:29.655Z,2.96
2023-03-11T22:47:02.269Z,2.87
2023-03-11T22:49:34.927Z,2.97
2023-03-11T22:52:07.501Z,2.94
2023-03-11T22:54:40.031Z,2.92
2023-03-11T22:57:12.602Z,2.83
2023-03-11T22:59:45.135Z,2.95
2023-03-11T23:02:17.766Z,3.00
2023-03-11T23:04:50.311Z,2.93
2023-03-11T23:07:22.889Z,2.86
2023-03-11T23:09:55.704Z,3.01
2023-03-11T23:12:28.280Z,2.97
2023-03-11T23:15:07.890Z,3.00
2023-03-11T23:17:41.147Z,2.96
2023-03-11T23:20:16.253Z,2.97
2023-03-11T23:22:48.768Z,2.82
2023-03-11T23:25:21.500Z,2.92
2023-03-11T23:27:54.045Z,2.86
2023-03-11T23:30:26.552Z,2.90
2023-03-11T23:32:59.854Z,2.76
2023-03-11T23:35:33.341Z,2.81
2023-03-11T23:38:05.871Z,2.82
2023-03-11T23:40:41.025Z,2.81
2023-03-11T23:43:13.567Z,2.83
2023-03-11T23:45:46.382Z,2.86
2023-03-11T23:48:19.164Z,2.89
2023-03-11T23:50:51.812Z,2.84
2023-03-11T23:53:26.603Z,2.87
2023-03-11T23:55:59.467Z,2.67
2023-03-11T23:58:33.146Z,2.82
